Time;durP1;ratioP1;P1;durP2;ratioP2;P2;SDS_P1;SDS_P2;PMS_P1;PMS_P2;Temp;Humidity;BMP_temperature;BMP_pressure;BME280_temperature;BME280_humidity;BME280_pressure;Samples;Min_cycle;Max_cycle;Signal;HPM_P1;HPM_P2
2021/12/07 00:01:20;;;;;;;;;;;20.50;55.10;;;;;;5032274;28;1111;-68
2021/12/07 00:03:45;;;;;;;;;;;20.50;55.10;;;;;;5031161;28;1279;-69
2021/12/07 00:06:11;;;;;;;;;;;20.50;55.20;;;;;;5032301;28;1071;-69
2021/12/07 00:08:36;;;;;;;;;;;20.40;55.20;;;;;;5032495;28;1126;-68
2021/12/07 00:11:02;;;;;;;;;;;20.40;55.20;;;;;;5030330;28;1056;-69
2021/12/07 00:13:32;;;;;;;;;;;20.40;55.20;;;;;;5030708;28;1276;-69
2021/12/07 00:15:58;;;;;;;;;;;20.40;55.20;;;;;;5032247;28;1969;-69
2021/12/07 00:18:23;;;;;;;;;;;20.40;55.20;;;;;;5031483;28;1111;-69
2021/12/07 00:20:49;;;;;;;;;;;20.40;55.30;;;;;;5012364;28;1178;-68
2021/12/07 00:23:15;;;;;;;;;;;20.40;55.30;;;;;;5027259;28;1305;-69
2021/12/07 00:25:41;;;;;;;;;;;20.40;55.30;;;;;;5012494;28;1064;-69
2021/12/07 00:28:06;;;;;;;;;;;20.40;55.40;;;;;;5012459;28;1080;-68
2021/12/07 00:30:33;;;;;;;;;;;20.40;55.40;;;;;;5012611;28;1236;-69
2021/12/07 00:33:29;;;;;;;;;;;20.30;55.30;;;;;;5023247;23;3685;-71
2021/12/07 00:35:54;;;;;;;;;;;20.40;55.40;;;;;;5010013;28;1926;-72
2021/12/07 00:38:21;;;;;;;;;;;20.40;55.40;;;;;;5012369;28;1140;-72
2021/12/07 00:40:46;;;;;;;;;;;20.40;55.40;;;;;;5012102;28;1328;-72
2021/12/07 00:43:12;;;;;;;;;;;20.40;55.40;;;;;;4994857;28;1293;-72
2021/12/07 00:45:38;;;;;;;;;;;20.40;55.40;;;;;;4993328;28;1374;-72
2021/12/07 00:48:04;;;;;;;;;;;20.40;55.40;;;;;;4994840;28;1303;-73
2021/12/07 00:50:30;;;;;;;;;;;20.40;55.40;;;;;;5012372;28;1349;-73
2021/12/07 00:52:55;;;;;;;;;;;20.40;55.40;;;;;;4990855;28;1370;-73
2021/12/07 00:55:25;;;;;;;;;;;20.40;55.40;;;;;;4986434;28;1969;-72
2021/12/07 00:57:53;;;;;;;;;;;20.40;55.40;;;;;;4994960;28;1164;-72
2021/12/07 01:00:19;;;;;;;;;;;20.40;55.30;;;;;;4994946;28;1062;-73
2021/12/07 01:02:44;;;;;;;;;;;20.40;55.30;;;;;;5011421;28;1287;-73
2021/12/07 01:05:16;;;;;;;;;;;20.40;55.30;;;;;;5011798;28;1175;-72
2021/12/07 01:26:32;;;;;;;;;;;20.40;55.40;;;;;;5015667;28;1368;-73
2021/12/07 01:28:58;;;;;;;;;;;20.40;55.40;;;;;;4998482;28;1089;-73
2021/12/07 01:31:34;;;;;;;;;;;20.40;55.40;;;;;;5015149;28;1312;-73
2021/12/07 01:34:26;;;;;;;;;;;20.40;55.40;;;;;;4999046;28;1237;-73
2021/12/07 01:42:55;;;;;;;;;;;20.40;55.50;;;;;;4997170;28;1313;-73
2021/12/07 01:45:20;;;;;;;;;;;20.40;55.40;;;;;;5001202;28;1318;-72
2021/12/07 01:50:27;;;;;;;;;;;20.30;55.50;;;;;;4997573;28;1274;-73
2021/12/07 01:53:16;;;;;;;;;;;20.30;55.40;;;;;;5013105;28;1335;-72
2021/12/07 02:01:03;;;;;;;;;;;20.30;55.50;;;;;;4998670;28;1149;-72
2021/12/07 02:03:28;;;;;;;;;;;20.30;55.50;;;;;;5014678;28;1225;-72
2021/12/07 02:05:54;;;;;;;;;;;20.30;55.60;;;;;;5015104;28;1247;-72
2021/12/07 02:08:19;;;;;;;;;;;20.30;55.60;;;;;;5015468;28;1319;-71
2021/12/07 02:10:45;;;;;;;;;;;20.30;55.60;;;;;;4994164;28;1301;-70
2021/12/07 02:13:22;;;;;;;;;;;20.30;55.60;;;;;;4990970;28;1263;-73
2021/12/07 02:15:47;;;;;;;;;;;20.30;55.70;;;;;;4999006;28;1960;-73
2021/12/07 02:18:13;;;;;;;;;;;20.30;55.70;;;;;;4996893;28;1102;-73
2021/12/07 02:20:38;;;;;;;;;;;20.30;55.70;;;;;;5002973;28;1145;-73
2021/12/07 02:23:04;;;;;;;;;;;20.30;55.70;;;;;;5019687;28;1250;-71
2021/12/07 02:25:32;;;;;;;;;;;20.30;56.30;;;;;;5014776;28;1089;-73
2021/12/07 02:27:57;;;;;;;;;;;20.30;55.70;;;;;;5014740;28;1053;-73
2021/12/07 02:30:23;;;;;;;;;;;20.30;55.70;;;;;;4997186;28;1077;-72
2021/12/07 02:32:51;;;;;;;;;;;20.30;55.70;;;;;;5013233;28;1334;-72
2021/12/07 02:35:22;;;;;;;;;;;20.30;55.70;;;;;;5013837;28;1910;-73
2021/12/07 02:37:48;;;;;;;;;;;20.30;55.70;;;;;;4997972;28;1113;-73
2021/12/07 02:40:13;;;;;;;;;;;20.30;55.70;;;;;;5014411;28;1296;-73
2021/12/07 02:42:39;;;;;;;;;;;20.30;55.60;;;;;;5014331;28;1294;-73
2021/12/07 02:45:05;;;;;;;;;;;20.30;55.60;;;;;;5013774;28;1364;-73
2021/12/07 02:47:32;;;;;;;;;;;20.30;55.60;;;;;;4996579;28;1105;-73
2021/12/07 02:49:58;;;;;;;;;;;20.30;55.60;;;;;;5014295;28;1333;-72
2021/12/07 02:52:23;;;;;;;;;;;20.30;55.60;;;;;;5013517;28;1359;-72
2021/12/07 02:54:50;;;;;;;;;;;20.30;55.60;;;;;;5013373;28;1926;-73
2021/12/07 02:57:16;;;;;;;;;;;20.30;55.60;;;;;;5014279;28;1062;-73
2021/12/07 02:59:44;;;;;;;;;;;20.30;55.60;;;;;;4996457;28;1425;-72
2021/12/07 03:02:11;;;;;;;;;;;20.30;55.60;;;;;;5012835;28;1307;-72
2021/12/07 03:04:44;;;;;;;;;;;20.30;55.60;;;;;;4996301;28;1209;-72
2021/12/07 03:26:00;;;;;;;;;;;20.20;55.80;;;;;;5014135;28;1258;-72
2021/12/07 03:28:25;;;;;;;;;;;20.20;55.80;;;;;;4997252;28;1066;-72
2021/12/07 03:30:51;;;;;;;;;;;20.20;55.80;;;;;;5012354;28;1297;-72
2021/12/07 03:33:16;;;;;;;;;;;20.20;55.80;;;;;;5013066;28;1254;-71
2021/12/07 03:35:42;;;;;;;;;;;20.20;55.80;;;;;;5013205;28;1942;-72
2021/12/07 03:38:07;;;;;;;;;;;20.20;55.80;;;;;;4995753;28;1352;-72
2021/12/07 03:40:33;;;;;;;;;;;20.20;55.80;;;;;;5012922;28;1281;-72
2021/12/07 03:42:58;;;;;;;;;;;20.20;55.80;;;;;;5012432;28;1279;-73
2021/12/07 03:45:24;;;;;;;;;;;20.20;55.90;;;;;;5012465;28;1104;-72
2021/12/07 03:47:50;;;;;;;;;;;20.20;55.90;;;;;;5013016;28;1081;-72
2021/12/07 03:50:15;;;;;;;;;;;20.20;55.80;;;;;;4995249;28;1121;-72
2021/12/07 03:52:41;;;;;;;;;;;20.20;55.90;;;;;;5012462;28;1295;-72
2021/12/07 03:55:06;;;;;;;;;;;20.20;55.90;;;;;;4995116;28;1890;-72
2021/12/07 03:57:32;;;;;;;;;;;20.20;55.90;;;;;;5013160;28;1301;-72
2021/12/07 03:59:57;;;;;;;;;;;20.20;55.80;;;;;;5012592;28;1196;-72
2021/12/07 04:02:23;;;;;;;;;;;20.20;55.90;;;;;;5012207;28;1301;-72
2021/12/07 04:04:57;;;;;;;;;;;20.20;55.80;;;;;;5012636;28;1295;-73
2021/12/07 04:07:22;;;;;;;;;;;20.20;55.90;;;;;;5012845;28;1105;-73
2021/12/07 04:09:48;;;;;;;;;;;20.20;55.90;;;;;;5013283;28;1057;-73
2021/12/07 04:12:13;;;;;;;;;;;20.20;55.80;;;;;;5012824;28;1166;-72
2021/12/07 04:14:39;;;;;;;;;;;20.20;55.90;;;;;;5013114;28;1356;-73
2021/12/07 04:17:04;;;;;;;;;;;20.20;55.90;;;;;;5014382;28;1953;-72
2021/12/07 04:19:30;;;;;;;;;;;20.20;55.90;;;;;;5022073;28;1084;-73
2021/12/07 04:21:55;;;;;;;;;;;20.20;55.90;;;;;;5024753;28;1152;-72
2021/12/07 04:24:20;;;;;;;;;;;20.20;55.90;;;;;;4994768;28;1394;-72
2021/12/07 04:26:46;;;;;;;;;;;20.20;55.90;;;;;;5012601;28;1101;-73
2021/12/07 04:29:11;;;;;;;;;;;20.20;55.90;;;;;;5012630;28;1093;-73
2021/12/07 04:31:37;;;;;;;;;;;20.20;55.90;;;;;;5011877;28;1648;-72
2021/12/07 04:34:02;;;;;;;;;;;20.20;55.90;;;;;;5012420;28;1278;-73
2021/12/07 04:36:27;;;;;;;;;;;20.20;55.90;;;;;;4995221;28;1910;-73
2021/12/07 04:38:53;;;;;;;;;;;20.20;55.90;;;;;;5012106;28;1137;-73
2021/12/07 04:41:18;;;;;;;;;;;20.20;55.90;;;;;;5012246;28;1170;-73
2021/12/07 04:43:47;;;;;;;;;;;20.20;55.90;;;;;;4994918;28;1306;-73
2021/12/07 04:46:28;;;;;;;;;;;20.20;55.90;;;;;;5012078;28;1096;-72
2021/12/07 04:59:31;;;;;;;;;;;20.20;56.00;;;;;;5016550;28;1169;-73
2021/12/07 05:01:56;;;;;;;;;;;20.20;56.00;;;;;;4997911;28;1085;-72
2021/12/07 05:04:26;;;;;;;;;;;20.20;56.00;;;;;;5015384;28;1198;-73
2021/12/07 05:06:57;;;;;;;;;;;20.20;56.00;;;;;;4999455;28;1074;-72
2021/12/07 05:09:52;;;;;;;;;;;20.20;56.00;;;;;;5015911;28;1314;-72
2021/12/07 05:12:24;;;;;;;;;;;20.20;56.00;;;;;;5015190;28;1308;-73
2021/12/07 05:14:59;;;;;;;;;;;20.20;56.00;;;;;;5015455;28;1942;-73
2021/12/07 05:39:05;;;;;;;;;;;20.70;55.10;;;;;;5015085;28;1042;-72
2021/12/07 05:41:31;;;;;;;;;;;20.70;54.90;;;;;;4996891;28;1475;-72
2021/12/07 05:43:56;;;;;;;;;;;20.80;54.90;;;;;;4997734;28;1192;-73
2021/12/07 05:46:21;;;;;;;;;;;20.80;54.70;;;;;;5015165;28;1318;-72
2021/12/07 05:48:47;;;;;;;;;;;20.80;54.60;;;;;;4997586;28;1071;-71
2021/12/07 05:51:12;;;;;;;;;;;20.90;54.60;;;;;;5014371;28;1412;-72
2021/12/07 05:53:38;;;;;;;;;;;20.90;54.60;;;;;;5014743;28;1246;-73
2021/12/07 05:56:03;;;;;;;;;;;20.90;54.40;;;;;;5014931;28;1963;-72
2021/12/07 05:58:29;;;;;;;;;;;20.90;54.30;;;;;;4997906;28;1381;-71
2021/12/07 06:00:57;;;;;;;;;;;20.90;54.30;;;;;;5014222;28;1171;-71
2021/12/07 06:03:23;;;;;;;;;;;20.90;54.30;;;;;;5014568;28;1261;-72
2021/12/07 06:05:48;;;;;;;;;;;21.00;54.30;;;;;;4997290;28;1367;-71
2021/12/07 06:08:14;;;;;;;;;;;21.00;54.40;;;;;;5014862;28;1285;-72
2021/12/07 06:10:39;;;;;;;;;;;21.00;54.30;;;;;;5014847;28;1069;-72
2021/12/07 06:13:05;;;;;;;;;;;21.00;54.30;;;;;;5014254;28;1426;-72
2021/12/07 06:15:33;;;;;;;;;;;21.00;54.20;;;;;;5008085;28;1910;-74
2021/12/07 06:17:59;;;;;;;;;;;21.00;54.20;;;;;;4975315;28;1879;-71
2021/12/07 06:20:24;;;;;;;;;;;21.00;54.20;;;;;;5000161;28;1098;-71
2021/12/07 06:22:50;;;;;;;;;;;21.00;54.20;;;;;;5014819;28;1350;-71
2021/12/07 06:25:15;;;;;;;;;;;21.00;54.20;;;;;;4993919;28;1124;-72
2021/12/07 06:27:41;;;;;;;;;;;21.00;54.20;;;;;;5006120;28;1325;-70
2021/12/07 06:30:06;;;;;;;;;;;21.00;54.20;;;;;;5013402;28;1321;-72
2021/12/07 06:32:32;;;;;;;;;;;21.00;54.20;;;;;;5012538;28;1337;-71
2021/12/07 06:34:57;;;;;;;;;;;21.00;54.20;;;;;;5013384;28;1898;-71
2021/12/07 06:37:22;;;;;;;;;;;21.00;54.20;;;;;;4995935;28;1260;-71
2021/12/07 06:39:48;;;;;;;;;;;21.00;54.20;;;;;;5011880;28;1293;-71
2021/12/07 06:42:13;;;;;;;;;;;21.00;54.20;;;;;;5001332;28;1278;-71
2021/12/07 06:44:39;;;;;;;;;;;21.00;54.10;;;;;;5011393;28;1334;-71
2021/12/07 06:47:04;;;;;;;;;;;21.00;54.20;;;;;;5012809;28;1160;-71
2021/12/07 06:49:30;;;;;;;;;;;21.00;54.20;;;;;;5013188;28;1073;-71
2021/12/07 06:51:55;;;;;;;;;;;21.00;54.20;;;;;;5012387;28;1344;-70
2021/12/07 06:54:21;;;;;;;;;;;21.00;54.20;;;;;;4995746;28;1282;-71
2021/12/07 06:56:46;;;;;;;;;;;21.00;54.20;;;;;;5012286;28;1890;-71
2021/12/07 06:59:12;;;;;;;;;;;21.00;54.20;;;;;;5014454;28;1307;-70
2021/12/07 07:01:37;;;;;;;;;;;21.00;54.20;;;;;;5012160;28;1147;-70
2021/12/07 07:04:03;;;;;;;;;;;21.00;54.30;;;;;;4994918;28;1363;-72
2021/12/07 07:06:28;;;;;;;;;;;21.00;54.30;;;;;;4995314;28;1423;-72
2021/12/07 07:08:53;;;;;;;;;;;21.00;54.30;;;;;;4995299;28;1526;-71
2021/12/07 07:11:19;;;;;;;;;;;21.00;54.30;;;;;;5010954;28;1311;-71
2021/12/07 07:13:45;;;;;;;;;;;20.90;54.30;;;;;;5012205;28;1344;-71
2021/12/07 07:16:10;;;;;;;;;;;20.90;54.30;;;;;;5012506;28;1930;-71
2021/12/07 07:18:35;;;;;;;;;;;20.90;54.30;;;;;;5024573;28;1299;-69
2021/12/07 07:21:01;;;;;;;;;;;20.90;54.30;;;;;;4993854;28;1089;-70
2021/12/07 07:23:26;;;;;;;;;;;20.90;52.40;;;;;;5012210;28;1375;-70
2021/12/07 07:25:55;;;;;;;;;;;20.90;50.90;;;;;;5012373;28;1262;-71
2021/12/07 07:28:21;;;;;;;;;;;20.90;49.50;;;;;;5012397;28;1337;-71
2021/12/07 07:30:46;;;;;;;;;;;20.80;49.30;;;;;;5012098;28;1081;-72
2021/12/07 07:33:12;;;;;;;;;;;20.80;49.60;;;;;;4993885;28;1281;-72
2021/12/07 07:35:37;;;;;;;;;;;20.80;49.70;;;;;;5012335;28;1906;-72
2021/12/07 07:38:03;;;;;;;;;;;20.80;49.90;;;;;;4994852;28;1282;-71
2021/12/07 07:40:28;;;;;;;;;;;20.80;50.10;;;;;;5012890;28;1349;-70
2021/12/07 07:42:53;;;;;;;;;;;20.80;50.30;;;;;;5013119;28;1299;-71
2021/12/07 07:45:19;;;;;;;;;;;20.80;50.60;;;;;;5011872;28;1278;-70
2021/12/07 07:47:44;;;;;;;;;;;20.80;50.90;;;;;;5011958;28;1339;-69
2021/12/07 07:50:10;;;;;;;;;;;20.80;51.40;;;;;;4994335;28;1256;-70
2021/12/07 07:52:36;;;;;;;;;;;20.90;51.60;;;;;;5011192;28;1341;-70
2021/12/07 07:55:01;;;;;;;;;;;20.90;51.60;;;;;;5011803;28;1902;-70
2021/12/07 07:57:28;;;;;;;;;;;21.00;52.20;;;;;;4993777;28;1414;-69
2021/12/07 07:59:53;;;;;;;;;;;21.10;51.70;;;;;;5010323;28;1261;-69
2021/12/07 08:02:19;;;;;;;;;;;21.20;51.60;;;;;;5011459;28;1261;-70
2021/12/07 08:04:44;;;;;;;;;;;21.30;51.50;;;;;;5012867;28;1326;-69
2021/12/07 08:07:09;;;;;;;;;;;21.40;51.40;;;;;;5011691;28;1337;-69
2021/12/07 08:09:35;;;;;;;;;;;21.50;51.30;;;;;;5011832;28;1313;-69
2021/12/07 08:12:00;;;;;;;;;;;21.60;51.20;;;;;;5011114;28;1080;-69
2021/12/07 08:14:26;;;;;;;;;;;21.70;51.10;;;;;;5011126;28;1262;-70
2021/12/07 08:16:51;;;;;;;;;;;21.80;51.00;;;;;;5011970;28;1899;-70
2021/12/07 08:19:17;;;;;;;;;;;21.90;50.90;;;;;;5023159;28;1049;-70
2021/12/07 08:21:42;;;;;;;;;;;22.00;50.80;;;;;;5023980;28;1250;-68
2021/12/07 08:24:07;;;;;;;;;;;22.00;50.70;;;;;;5010049;28;1293;-68
2021/12/07 08:26:33;;;;;;;;;;;22.10;50.70;;;;;;5002611;28;1225;-71
2021/12/07 08:28:59;;;;;;;;;;;22.10;50.50;;;;;;5003845;28;1217;-71
2021/12/07 08:31:25;;;;;;;;;;;22.20;50.50;;;;;;4986781;28;1319;-73
2021/12/07 08:33:50;;;;;;;;;;;22.20;50.40;;;;;;5011615;28;1350;-72
2021/12/07 08:36:16;;;;;;;;;;;22.30;50.40;;;;;;4991430;28;1966;-73
2021/12/07 08:38:41;;;;;;;;;;;22.30;50.40;;;;;;5011664;28;1296;-73
2021/12/07 08:41:06;;;;;;;;;;;22.40;50.40;;;;;;5009661;28;1257;-73
2021/12/07 08:43:33;;;;;;;;;;;22.40;50.30;;;;;;4991442;28;1312;-73
2021/12/07 08:45:58;;;;;;;;;;;22.40;50.30;;;;;;4998331;28;1324;-72
2021/12/07 08:48:24;;;;;;;;;;;22.40;50.20;;;;;;5009717;28;1240;-72
2021/12/07 08:50:50;;;;;;;;;;;22.50;50.50;;;;;;5007187;28;1236;-71
2021/12/07 08:53:16;;;;;;;;;;;22.50;50.40;;;;;;4993719;28;1381;-72
2021/12/07 09:01:10;;;;;;;;;;;22.60;50.80;;;;;;5008392;28;961;-70
2021/12/07 09:03:36;;;;;;;;;;;22.60;50.90;;;;;;4998592;28;1346;-70
2021/12/07 09:06:01;;;;;;;;;;;22.60;50.90;;;;;;5015880;28;1069;-71
2021/12/07 09:08:27;;;;;;;;;;;22.70;51.00;;;;;;4998040;28;1270;-71
2021/12/07 09:10:52;;;;;;;;;;;22.70;51.10;;;;;;5015552;28;1386;-71
2021/12/07 09:13:20;;;;;;;;;;;22.70;51.10;;;;;;5016263;28;1354;-70
2021/12/07 09:15:45;;;;;;;;;;;22.70;51.20;;;;;;5016168;28;1898;-70
2021/12/07 09:18:10;;;;;;;;;;;22.80;51.30;;;;;;5027370;28;1318;-70
2021/12/07 09:20:36;;;;;;;;;;;22.70;51.30;;;;;;5003768;28;1302;-71
2021/12/07 09:23:01;;;;;;;;;;;22.70;51.30;;;;;;5021355;28;1331;-70
2021/12/07 09:25:27;;;;;;;;;;;22.80;51.40;;;;;;5015749;28;1308;-70
2021/12/07 09:27:52;;;;;;;;;;;22.80;51.40;;;;;;4998078;28;1302;-71
2021/12/07 09:30:18;;;;;;;;;;;22.80;51.40;;;;;;5015557;28;1298;-71
2021/12/07 09:32:43;;;;;;;;;;;22.80;51.50;;;;;;5014744;28;1332;-70
2021/12/07 09:35:09;;;;;;;;;;;22.80;51.60;;;;;;5015378;28;1906;-70
2021/12/07 09:37:35;;;;;;;;;;;22.80;51.70;;;;;;4997613;28;1496;-71
2021/12/07 09:40:00;;;;;;;;;;;22.80;51.70;;;;;;4997521;28;1129;-70
2021/12/07 09:42:26;;;;;;;;;;;22.80;51.80;;;;;;5014206;28;1295;-71
2021/12/07 09:44:51;;;;;;;;;;;22.80;51.90;;;;;;5015429;28;1363;-70
2021/12/07 09:47:16;;;;;;;;;;;22.80;51.90;;;;;;5015349;28;1341;-70
2021/12/07 09:49:42;;;;;;;;;;;22.80;52.00;;;;;;5014818;28;1148;-71
2021/12/07 09:52:08;;;;;;;;;;;22.80;52.00;;;;;;5014622;28;1390;-71
2021/12/07 09:54:33;;;;;;;;;;;22.80;52.50;;;;;;4997350;28;1310;-70
2021/12/07 09:56:59;;;;;;;;;;;22.70;52.40;;;;;;4981092;28;1910;-70
2021/12/07 09:59:24;;;;;;;;;;;22.70;52.40;;;;;;5014986;28;1432;-70
2021/12/07 10:01:50;;;;;;;;;;;22.70;52.50;;;;;;5014422;28;1351;-70
2021/12/07 10:04:15;;;;;;;;;;;22.70;52.70;;;;;;5015073;28;1382;-70
2021/12/07 10:06:41;;;;;;;;;;;22.70;52.70;;;;;;5014589;28;1281;-70
2021/12/07 10:09:06;;;;;;;;;;;22.70;52.90;;;;;;5014785;28;1337;-71
2021/12/07 10:11:31;;;;;;;;;;;22.60;52.90;;;;;;4996631;28;1302;-71
2021/12/07 10:13:57;;;;;;;;;;;22.60;53.20;;;;;;4997221;28;1344;-70
2021/12/07 10:16:23;;;;;;;;;;;22.60;53.70;;;;;;5013457;28;1898;-72
2021/12/07 10:18:48;;;;;;;;;;;22.60;53.50;;;;;;5015406;28;1144;-72
2021/12/07 10:21:25;;;;;;;;;;;22.60;54.00;;;;;;5015861;28;1224;-71
2021/12/07 10:23:55;;;;;;;;;;;22.50;53.40;;;;;;5001350;28;1239;-71
2021/12/07 10:26:21;;;;;;;;;;;22.50;53.50;;;;;;4997358;28;1117;-71
2021/12/07 10:28:53;;;;;;;;;;;22.50;53.70;;;;;;4997055;28;1318;-71
2021/12/07 10:31:20;;;;;;;;;;;22.50;53.80;;;;;;4996327;28;1286;-71
2021/12/07 10:33:52;;;;;;;;;;;22.50;53.90;;;;;;5013967;28;1415;-72
2021/12/07 10:36:19;;;;;;;;;;;22.40;54.00;;;;;;4996879;28;1910;-69
2021/12/07 10:38:55;;;;;;;;;;;22.40;54.00;;;;;;5014127;28;1335;-71
2021/12/07 10:41:23;;;;;;;;;;;22.40;54.30;;;;;;5012704;28;1821;-71
2021/12/07 10:43:53;;;;;;;;;;;22.40;54.30;;;;;;5013673;28;1310;-72
2021/12/07 10:46:38;;;;;;;;;;;22.40;55.00;;;;;;5012954;28;1368;-72
2021/12/07 10:49:08;;;;;;;;;;;22.40;54.40;;;;;;4995792;28;1284;-71
2021/12/07 10:51:33;;;;;;;;;;;22.40;54.60;;;;;;5013746;28;1278;-71
2021/12/07 10:53:58;;;;;;;;;;;22.40;54.60;;;;;;5013088;28;1281;-71
2021/12/07 10:56:30;;;;;;;;;;;22.30;54.50;;;;;;5013431;28;1915;-69
2021/12/07 10:59:03;;;;;;;;;;;22.40;54.60;;;;;;5013761;28;1265;-70
2021/12/07 11:01:31;;;;;;;;;;;22.40;54.60;;;;;;5013523;28;1085;-72
2021/12/07 11:04:15;;;;;;;;;;;22.40;54.50;;;;;;5013915;28;1350;-71
2021/12/07 11:07:01;;;;;;;;;;;22.50;54.50;;;;;;5014411;28;1272;-74
2021/12/07 11:09:26;;;;;;;;;;;22.50;54.30;;;;;;5012795;28;1261;-71
2021/12/07 11:12:05;;;;;;;;;;;22.50;54.30;;;;;;5012783;28;1332;-70
2021/12/07 11:14:38;;;;;;;;;;;22.50;54.40;;;;;;5013597;28;1348;-71
2021/12/07 11:17:03;;;;;;;;;;;22.50;54.40;;;;;;5016209;28;1902;-70
2021/12/07 11:19:29;;;;;;;;;;;22.40;54.60;;;;;;5004798;28;1141;-71
2021/12/07 11:21:54;;;;;;;;;;;22.40;54.70;;;;;;5024869;28;1336;-71
2021/12/07 11:24:20;;;;;;;;;;;22.40;54.70;;;;;;4995589;28;1326;-70
2021/12/07 11:29:40;;;;;;;;;;;22.40;54.70;;;;;;4998795;28;1338;-72
2021/12/07 11:32:06;;;;;;;;;;;22.40;54.70;;;;;;5013202;28;1287;-72
2021/12/07 11:34:41;;;;;;;;;;;22.40;54.70;;;;;;5012631;28;1210;-72
2021/12/07 11:37:10;;;;;;;;;;;22.40;54.70;;;;;;5013171;28;1903;-72
2021/12/07 11:39:46;;;;;;;;;;;22.40;54.70;;;;;;4993099;28;1538;-72
2021/12/07 11:42:13;;;;;;;;;;;22.40;54.70;;;;;;5006460;28;1209;-71
2021/12/07 11:44:58;;;;;;;;;;;22.40;54.80;;;;;;4994675;28;1405;-69
2021/12/07 11:47:28;;;;;;;;;;;22.40;54.80;;;;;;4995064;28;1291;-70
2021/12/07 11:49:54;;;;;;;;;;;22.40;55.10;;;;;;5013369;28;1286;-70
2021/12/07 11:52:19;;;;;;;;;;;22.40;55.10;;;;;;5012559;28;1340;-70
2021/12/07 11:54:45;;;;;;;;;;;22.40;55.00;;;;;;5012071;28;1263;-69
2021/12/07 11:57:12;;;;;;;;;;;22.40;55.10;;;;;;5011452;28;1961;-70
2021/12/07 11:59:37;;;;;;;;;;;22.40;55.00;;;;;;4994527;28;1308;-70
2021/12/07 12:02:03;;;;;;;;;;;22.40;55.10;;;;;;4993903;28;1392;-71
2021/12/07 12:04:28;;;;;;;;;;;22.40;55.10;;;;;;5011502;28;1282;-71
2021/12/07 12:06:54;;;;;;;;;;;22.30;55.20;;;;;;4993766;28;1139;-71
2021/12/07 12:09:19;;;;;;;;;;;22.40;55.30;;;;;;5012648;28;1381;-70
2021/12/07 12:11:58;;;;;;;;;;;22.30;55.30;;;;;;5010898;28;1097;-68
2021/12/07 12:14:33;;;;;;;;;;;22.40;55.40;;;;;;4993475;28;1315;-71
2021/12/07 12:17:08;;;;;;;;;;;22.40;55.40;;;;;;5012682;28;1910;-71
2021/12/07 12:19:53;;;;;;;;;;;22.40;55.40;;;;;;5012941;28;1124;-71
2021/12/07 12:22:26;;;;;;;;;;;22.40;55.40;;;;;;4992786;28;1162;-72
2021/12/07 12:24:52;;;;;;;;;;;22.40;55.40;;;;;;4995082;28;1322;-72
2021/12/07 12:27:22;;;;;;;;;;;22.40;55.40;;;;;;4994912;28;1433;-71
2021/12/07 12:29:49;;;;;;;;;;;22.40;55.50;;;;;;4994037;28;1306;-70
2021/12/07 12:32:25;;;;;;;;;;;22.40;55.60;;;;;;4994442;28;1355;-70
2021/12/07 12:34:50;;;;;;;;;;;22.30;55.30;;;;;;4995105;28;1706;-70
2021/12/07 12:37:17;;;;;;;;;;;22.40;55.40;;;;;;5011313;28;1898;-70
2021/12/07 12:39:44;;;;;;;;;;;22.30;55.40;;;;;;4994866;28;1704;-71
2021/12/07 12:42:09;;;;;;;;;;;22.40;55.60;;;;;;5001469;28;1607;-70
2021/12/07 12:44:35;;;;;;;;;;;22.40;55.50;;;;;;5010011;28;1528;-70
2021/12/07 12:47:00;;;;;;;;;;;22.50;55.60;;;;;;5012931;28;856;-68
2021/12/07 12:49:36;;;;;;;;;;;22.50;55.40;;;;;;5013145;28;935;-71
2021/12/07 12:52:02;;;;;;;;;;;22.50;55.40;;;;;;4994856;28;1073;-69
2021/12/07 12:54:27;;;;;;;;;;;22.50;55.30;;;;;;4995020;28;1267;-70
2021/12/07 12:56:55;;;;;;;;;;;22.60;55.30;;;;;;4986986;28;1968;-71
2021/12/07 12:59:22;;;;;;;;;;;22.60;55.20;;;;;;4995167;28;1661;-70
2021/12/07 13:01:48;;;;;;;;;;;22.60;55.20;;;;;;5011298;28;1409;-70
2021/12/07 13:04:23;;;;;;;;;;;22.70;55.10;;;;;;5012212;28;1300;-70
2021/12/07 13:07:01;;;;;;;;;;;22.60;55.00;;;;;;4995021;28;1301;-69
2021/12/07 13:09:27;;;;;;;;;;;22.60;55.00;;;;;;4996313;28;1166;-70
2021/12/07 13:11:57;;;;;;;;;;;22.60;55.00;;;;;;5011195;28;1109;-70
2021/12/07 13:14:22;;;;;;;;;;;22.60;55.00;;;;;;4994377;28;1328;-68
2021/12/07 13:16:48;;;;;;;;;;;22.60;55.10;;;;;;4998923;28;1906;-72
2021/12/07 13:19:14;;;;;;;;;;;22.70;55.10;;;;;;5008159;28;1348;-69
2021/12/07 13:21:40;;;;;;;;;;;22.60;55.10;;;;;;5026212;28;1279;-70
2021/12/07 13:24:07;;;;;;;;;;;22.60;55.10;;;;;;4997740;28;1242;-70
2021/12/07 13:26:36;;;;;;;;;;;22.60;55.20;;;;;;4998107;28;1275;-70
2021/12/07 13:29:21;;;;;;;;;;;22.60;55.20;;;;;;4998005;28;1330;-70
2021/12/07 13:31:48;;;;;;;;;;;22.60;55.20;;;;;;5015027;28;1293;-70
2021/12/07 13:34:14;;;;;;;;;;;22.60;55.30;;;;;;4997478;28;1265;-70
2021/12/07 13:36:41;;;;;;;;;;;22.60;55.30;;;;;;4997951;28;1898;-71
2021/12/07 13:39:10;;;;;;;;;;;22.60;55.30;;;;;;4994196;28;1189;-70
2021/12/07 13:41:45;;;;;;;;;;;22.50;55.40;;;;;;5008917;28;1468;-71
2021/12/07 13:44:10;;;;;;;;;;;22.60;55.50;;;;;;4998201;28;1397;-70
2021/12/07 13:46:36;;;;;;;;;;;22.50;55.50;;;;;;5015405;28;1144;-71
2021/12/07 13:49:04;;;;;;;;;;;22.50;55.50;;;;;;5014738;28;1534;-71
2021/12/07 13:51:29;;;;;;;;;;;22.50;55.60;;;;;;4997237;28;1287;-70
2021/12/07 13:53:55;;;;;;;;;;;22.50;55.60;;;;;;5015219;28;1521;-69
2021/12/07 13:56:21;;;;;;;;;;;22.50;56.30;;;;;;4997487;28;1949;-70
2021/12/07 13:58:55;;;;;;;;;;;22.50;55.70;;;;;;5015294;28;1399;-70
2021/12/07 14:01:22;;;;;;;;;;;22.40;55.70;;;;;;5012722;28;2112;-69
2021/12/07 14:03:48;;;;;;;;;;;22.40;55.80;;;;;;5007697;28;1471;-69
2021/12/07 14:06:13;;;;;;;;;;;22.40;55.80;;;;;;5013786;28;1531;-69
2021/12/07 14:08:39;;;;;;;;;;;22.40;55.90;;;;;;5013112;28;2297;-69
2021/12/07 14:11:04;;;;;;;;;;;22.40;55.90;;;;;;5011334;28;2050;-68
2021/12/07 14:13:30;;;;;;;;;;;22.40;56.00;;;;;;5012675;28;2089;-69
2021/12/07 14:15:55;;;;;;;;;;;22.40;56.10;;;;;;4995507;28;1965;-69
2021/12/07 14:18:24;;;;;;;;;;;22.40;56.10;;;;;;5020405;28;1496;-69
2021/12/07 14:20:50;;;;;;;;;;;22.30;56.00;;;;;;5019126;28;1558;-69
2021/12/07 14:23:17;;;;;;;;;;;22.30;56.00;;;;;;4995831;28;1596;-69
2021/12/07 14:25:46;;;;;;;;;;;22.30;56.10;;;;;;5014037;28;1157;-70
2021/12/07 14:28:21;;;;;;;;;;;22.30;56.20;;;;;;5013802;28;1587;-69
2021/12/07 14:30:47;;;;;;;;;;;22.30;56.20;;;;;;5013013;28;1565;-68
2021/12/07 14:33:12;;;;;;;;;;;22.30;56.10;;;;;;4995837;28;1661;-70
2021/12/07 14:35:37;;;;;;;;;;;22.40;56.20;;;;;;5013864;28;1906;-68
2021/12/07 14:38:03;;;;;;;;;;;22.30;56.10;;;;;;5013538;28;1686;-69
2021/12/07 14:40:28;;;;;;;;;;;22.30;56.10;;;;;;5014519;28;1362;-69
2021/12/07 14:42:54;;;;;;;;;;;22.30;56.10;;;;;;5012037;28;1645;-68
2021/12/07 14:45:19;;;;;;;;;;;22.30;56.10;;;;;;5013686;28;1405;-69
2021/12/07 14:47:45;;;;;;;;;;;22.30;56.10;;;;;;5012660;28;1615;-70
2021/12/07 14:50:10;;;;;;;;;;;22.30;56.10;;;;;;5003109;28;1351;-69
2021/12/07 14:52:36;;;;;;;;;;;22.30;56.00;;;;;;5012354;28;1673;-69
2021/12/07 14:55:01;;;;;;;;;;;22.30;56.10;;;;;;5013493;28;1429;-70
2021/12/07 14:57:27;;;;;;;;;;;22.30;56.10;;;;;;5013585;28;1906;-69
2021/12/07 14:59:57;;;;;;;;;;;22.30;56.00;;;;;;5012887;28;1434;-68
2021/12/07 15:02:23;;;;;;;;;;;22.30;56.10;;;;;;4995780;28;1431;-70
2021/12/07 15:04:55;;;;;;;;;;;22.30;56.20;;;;;;5012289;28;2045;-69
2021/12/07 15:07:24;;;;;;;;;;;22.30;56.20;;;;;;5012853;28;1371;-70
2021/12/07 15:09:50;;;;;;;;;;;22.30;56.20;;;;;;4995096;28;1117;-69
2021/12/07 15:12:18;;;;;;;;;;;22.30;56.10;;;;;;5012041;28;1342;-71
2021/12/07 15:14:44;;;;;;;;;;;22.30;56.10;;;;;;5012031;28;1356;-70
2021/12/07 15:17:09;;;;;;;;;;;22.30;56.20;;;;;;5011783;28;1975;-70
2021/12/07 15:19:35;;;;;;;;;;;22.30;56.20;;;;;;4995712;28;1085;-69
2021/12/07 15:22:00;;;;;;;;;;;22.30;56.20;;;;;;5017134;28;1788;-68
2021/12/07 15:24:26;;;;;;;;;;;22.30;56.20;;;;;;5012792;28;1362;-69
2021/12/07 15:26:52;;;;;;;;;;;22.30;56.10;;;;;;4996353;28;1311;-70
2021/12/07 15:29:18;;;;;;;;;;;22.20;56.10;;;;;;4994533;28;2146;-70
2021/12/07 15:31:45;;;;;;;;;;;22.30;56.20;;;;;;5013156;28;1412;-70
2021/12/07 15:34:10;;;;;;;;;;;22.20;56.20;;;;;;5019887;28;1310;-70
2021/12/07 15:36:36;;;;;;;;;;;22.20;56.30;;;;;;5013222;28;1976;-70
2021/12/07 15:39:12;;;;;;;;;;;22.20;56.30;;;;;;4995883;28;1082;-70
2021/12/07 15:41:38;;;;;;;;;;;22.20;56.40;;;;;;5012255;28;1089;-71
2021/12/07 15:44:03;;;;;;;;;;;22.20;56.40;;;;;;5013155;28;1344;-71
2021/12/07 15:46:29;;;;;;;;;;;22.20;56.40;;;;;;5010950;28;1311;-71
2021/12/07 15:48:55;;;;;;;;;;;22.20;56.70;;;;;;5006016;28;1618;-71
2021/12/07 15:51:20;;;;;;;;;;;22.20;56.70;;;;;;5012670;28;1563;-69
2021/12/07 15:53:46;;;;;;;;;;;22.20;56.60;;;;;;5013239;28;1521;-70
2021/12/07 15:56:18;;;;;;;;;;;22.20;56.50;;;;;;5013108;28;1989;-70
2021/12/07 15:58:45;;;;;;;;;;;22.20;56.50;;;;;;4995815;28;1395;-71
2021/12/07 16:01:11;;;;;;;;;;;22.20;56.70;;;;;;5002769;28;1541;-69
2021/12/07 16:03:46;;;;;;;;;;;22.20;56.60;;;;;;5010966;28;1442;-69